Time;durP1;ratioP1;P1;durP2;ratioP2;P2;SDS_P1;SDS_P2;PMS_P1;PMS_P2;Temp;Humidity;BMP_temperature;BMP_pressure;BME280_temperature;BME280_humidity;BME280_pressure;Samples;Min_cycle;Max_cycle;Signal;HPM_P1;HPM_P2
2021/12/05 00:17:48;;;;;;;1.50;1.40;;;16.70;61.10;;;;;;5082225;28;20071;-33
2021/12/05 00:22:39;;;;;;;1.58;1.40;;;16.60;61.10;;;;;;5080991;28;20047;-34
2021/12/05 00:25:09;;;;;;;1.75;1.35;;;16.60;61.00;;;;;;5061170;28;34546;-31
2021/12/05 00:27:41;;;;;;;1.15;1.05;;;16.60;61.10;;;;;;5081608;28;20060;-33
2021/12/05 00:46:44;;;;;;;1.90;1.02;;;16.60;61.20;;;;;;5063801;28;26037;-31
2021/12/05 00:52:06;;;;;;;1.60;1.17;;;16.50;61.10;;;;;;5064316;28;25994;-33
2021/12/05 00:55:05;;;;;;;1.92;1.10;;;16.50;61.20;;;;;;5074716;28;33954;-32
2021/12/05 01:15:26;;;;;;;1.83;1.08;;;16.50;61.20;;;;;;5081794;28;20058;-32
2021/12/05 01:18:11;;;;;;;1.38;1.00;;;16.50;61.20;;;;;;5060424;28;25232;-33
2021/12/05 01:20:47;;;;;;;2.00;0.80;;;16.50;61.20;;;;;;5081336;28;27052;-33
2021/12/05 01:25:58;;;;;;;1.17;0.90;;;16.40;61.20;;;;;;5078935;28;20127;-35
2021/12/05 01:33:55;;;;;;;1.75;0.95;;;16.40;61.10;;;;;;5065077;28;20097;-31
2021/12/05 01:42:46;;;;;;;1.77;0.88;;;16.40;61.10;;;;;;5078315;28;20038;-34
2021/12/05 02:12:20;;;;;;;1.10;0.70;;;16.20;61.10;;;;;;5077686;28;20059;-33
2021/12/05 02:34:09;;;;;;;1.15;1.00;;;16.20;61.20;;;;;;5080191;28;20078;-36
2021/12/05 02:39:32;;;;;;;2.53;1.00;;;16.20;61.20;;;;;;5071079;28;20151;-34
2021/12/05 02:42:08;;;;;;;2.28;1.33;;;16.20;61.20;;;;;;5063102;28;20055;-32
2021/12/05 02:44:34;;;;;;;0.98;0.75;;;16.20;61.20;;;;;;5079795;28;20051;-33
2021/12/05 02:47:08;;;;;;;1.00;0.65;;;16.20;61.20;;;;;;5061099;28;36103;-32
2021/12/05 02:49:36;;;;;;;2.33;1.00;;;16.20;61.20;;;;;;5078652;28;20044;-31
2021/12/05 02:52:07;;;;;;;1.55;0.90;;;16.10;61.10;;;;;;5055345;28;20051;-31
2021/12/05 02:54:39;;;;;;;1.63;1.15;;;16.10;61.10;;;;;;5080862;28;20047;-32
2021/12/05 02:57:06;;;;;;;1.63;1.08;;;16.10;61.10;;;;;;5063785;28;20040;-38
2021/12/05 03:02:13;;;;;;;1.83;0.85;;;16.10;61.90;;;;;;5071707;28;20056;-41
2021/12/05 03:04:44;;;;;;;2.83;1.05;;;16.10;61.30;;;;;;5070467;28;20105;-41
2021/12/05 03:07:10;;;;;;;;;;;16.10;61.20;;;;;;5080230;28;20402;-42
2021/12/05 03:09:39;;;;;;;2.38;1.00;;;16.00;61.10;;;;;;5058744;28;19977;-44
2021/12/05 03:12:07;;;;;;;2.47;1.02;;;16.00;61.10;;;;;;5055177;28;20028;-44
2021/12/05 03:14:33;;;;;;;2.85;0.90;;;16.00;61.20;;;;;;5060753;28;33967;-44
2021/12/05 03:16:59;;;;;;;1.42;1.00;;;16.00;61.20;;;;;;5077763;28;20036;-43
2021/12/05 03:19:25;;;;;;;1.75;0.98;;;16.00;61.10;;;;;;5059676;28;20038;-42
2021/12/05 03:21:52;;;;;;;2.10;1.15;;;16.00;61.10;;;;;;5073699;28;20032;-36
2021/12/05 03:24:19;;;;;;;2.33;0.98;;;16.00;61.20;;;;;;5053138;28;26300;-38
2021/12/05 03:26:48;;;;;;;1.40;1.08;;;16.00;61.20;;;;;;5079189;28;20151;-43
2021/12/05 03:29:16;;;;;;;1.02;0.90;;;16.00;61.20;;;;;;5057628;28;33647;-44
2021/12/05 03:31:43;;;;;;;1.35;0.90;;;16.00;61.20;;;;;;5077478;28;20482;-40
2021/12/05 03:34:11;;;;;;;1.92;1.05;;;15.90;61.10;;;;;;5055331;28;20036;-44
2021/12/05 03:36:39;;;;;;;1.05;0.65;;;15.90;61.20;;;;;;5076767;28;20098;-43
2021/12/05 03:39:07;;;;;;;1.45;1.20;;;15.90;61.10;;;;;;5062682;28;24118;-38
2021/12/05 03:41:34;;;;;;;2.65;1.50;;;15.90;61.20;;;;;;5075441;28;34869;-44
2021/12/05 03:44:02;;;;;;;1.20;0.80;;;15.90;61.20;;;;;;5073781;28;20048;-42
2021/12/05 03:46:29;;;;;;;1.42;1.08;;;15.90;61.20;;;;;;5061136;28;20139;-41
2021/12/05 03:48:58;;;;;;;0.98;0.80;;;15.90;61.20;;;;;;5077602;28;20047;-42
2021/12/05 03:51:27;;;;;;;1.38;0.90;;;15.90;61.20;;;;;;5062263;28;25987;-36
2021/12/05 03:53:53;;;;;;;2.28;1.02;;;15.90;61.40;;;;;;5081739;28;20091;-35
2021/12/05 03:56:20;;;;;;;0.90;0.70;;;15.80;61.20;;;;;;5061626;28;36250;-43
2021/12/05 03:58:47;;;;;;;1.15;0.82;;;15.80;61.10;;;;;;5081816;28;20036;-43
2021/12/05 04:01:14;;;;;;;1.17;0.80;;;15.80;61.10;;;;;;5063060;28;24106;-43
2021/12/05 04:03:43;;;;;;;1.88;0.95;;;15.80;61.20;;;;;;5080375;28;20691;-42
2021/12/05 04:06:11;;;;;;;0.77;0.75;;;15.80;61.10;;;;;;5064756;28;20036;-44
2021/12/05 04:08:40;;;;;;;1.33;1.00;;;15.80;61.10;;;;;;5078868;28;20036;-41
2021/12/05 04:11:10;;;;;;;2.20;0.93;;;15.80;61.10;;;;;;5062833;28;38891;-43
2021/12/05 04:13:36;;;;;;;2.85;1.35;;;15.70;61.10;;;;;;5083575;28;20508;-43
2021/12/05 04:16:05;;;;;;;2.63;1.05;;;15.80;61.20;;;;;;5061490;28;24981;-38
2021/12/05 04:18:31;;;;;;;1.67;1.23;;;15.70;61.10;;;;;;5086458;28;20476;-43
2021/12/05 04:20:57;;;;;;;1.92;0.98;;;15.70;61.10;;;;;;5075695;28;20070;-44
2021/12/05 04:23:23;;;;;;;1.63;1.08;;;15.70;61.10;;;;;;5066347;28;23503;-41
2021/12/05 04:25:51;;;;;;;2.13;1.20;;;15.70;61.10;;;;;;5079167;28;33740;-44
2021/12/05 04:28:18;;;;;;;2.00;0.90;;;15.70;61.10;;;;;;5064192;28;24278;-38
2021/12/05 04:30:43;;;;;;;2.03;1.15;;;15.70;61.10;;;;;;5081148;28;20483;-43
2021/12/05 04:33:09;;;;;;;1.50;1.10;;;15.70;61.10;;;;;;5063732;28;20041;-42
2021/12/05 04:35:35;;;;;;;1.90;1.27;;;15.70;61.10;;;;;;5080903;28;20032;-39
2021/12/05 04:38:02;;;;;;;2.10;1.25;;;15.60;61.10;;;;;;5061833;28;36582;-43
2021/12/05 04:40:28;;;;;;;2.38;1.30;;;15.60;61.10;;;;;;5081388;28;20067;-39
2021/12/05 04:42:54;;;;;;;2.50;1.27;;;15.60;61.10;;;;;;5065457;28;21375;-41
2021/12/05 04:45:26;;;;;;;1.60;1.00;;;15.60;61.10;;;;;;5077714;28;20044;-42
2021/12/05 04:47:53;;;;;;;1.83;1.10;;;15.60;61.10;;;;;;5068497;28;20150;-41
2021/12/05 04:50:20;;;;;;;2.40;1.30;;;15.60;61.80;;;;;;5080200;28;20051;-42
2021/12/05 04:52:47;;;;;;;1.98;1.30;;;15.60;61.20;;;;;;5063424;28;32087;-44
2021/12/05 04:55:13;;;;;;;1.95;1.48;;;15.60;61.10;;;;;;5081603;28;20048;-42
2021/12/05 04:57:40;;;;;;;3.40;1.30;;;15.50;61.10;;;;;;5076074;28;20028;-43
2021/12/05 05:00:18;;;;;;;1.88;1.27;;;15.50;61.00;;;;;;5066968;28;20041;-43
2021/12/05 05:02:44;;;;;;;2.45;1.30;;;15.50;61.00;;;;;;5075313;28;20051;-40
2021/12/05 05:05:11;;;;;;;2.28;1.38;;;15.50;61.00;;;;;;5060845;28;20055;-44
2021/12/05 05:07:40;;;;;;;1.25;1.08;;;15.50;61.00;;;;;;5081528;28;31521;-41
2021/12/05 05:10:15;;;;;;;3.13;1.30;;;15.50;61.00;;;;;;5064707;28;20097;-44
2021/12/05 05:12:41;;;;;;;1.60;1.00;;;15.50;61.00;;;;;;5080172;28;20510;-44
2021/12/05 05:15:08;;;;;;;1.75;1.23;;;15.50;61.00;;;;;;5062093;28;25449;-43
2021/12/05 05:17:34;;;;;;;2.15;1.25;;;15.50;61.00;;;;;;5081808;28;20089;-40
2021/12/05 05:20:06;;;;;;;1.73;1.20;;;15.40;61.10;;;;;;5056750;28;31150;-42
2021/12/05 05:30:36;;;;;;;2.05;1.35;;;15.40;61.00;;;;;;5062059;28;20048;-44
2021/12/05 05:49:16;;;;;;;1.58;1.02;;;15.30;61.00;;;;;;5076276;28;33631;-40
2021/12/05 05:51:43;;;;;;;2.08;1.38;;;15.30;61.00;;;;;;5068077;28;23424;-43
2021/12/05 05:54:09;;;;;;;1.73;1.10;;;15.30;61.00;;;;;;5077120;28;20044;-44
2021/12/05 05:56:36;;;;;;;2.42;1.20;;;15.30;60.90;;;;;;5061650;28;20537;-39
2021/12/05 05:59:14;;;;;;;1.65;1.20;;;15.30;60.90;;;;;;5082618;28;20043;-43
2021/12/05 06:03:18;;;;;;;1.88;1.17;;;15.30;61.00;;;;;;5060504;28;20052;-43
2021/12/05 06:04:26;;;;;;;1.98;1.10;;;15.30;61.00;;;;;;5077980;28;20051;-42
2021/12/05 06:06:51;;;;;;;2.25;1.30;;;15.20;60.90;;;;;;5063318;28;20039;-42
2021/12/05 06:09:17;;;;;;;2.17;1.38;;;15.20;60.90;;;;;;5076220;28;20090;-43
2021/12/05 06:11:42;;;;;;;3.00;1.20;;;15.20;60.90;;;;;;5063680;28;20097;-37
2021/12/05 06:14:08;;;;;;;1.50;0.98;;;15.20;60.90;;;;;;5080008;28;20082;-43
2021/12/05 06:16:34;;;;;;;2.05;1.50;;;15.20;60.90;;;;;;5062986;28;33395;-42
2021/12/05 06:18:59;;;;;;;1.27;1.08;;;15.20;61.00;;;;;;5079717;28;20494;-40
2021/12/05 06:21:25;;;;;;;2.70;1.20;;;15.20;60.90;;;;;;5079067;28;20064;-43
2021/12/05 06:23:51;;;;;;;2.30;1.10;;;15.20;60.90;;;;;;5061428;28;23814;-40
2021/12/05 06:26:22;;;;;;;1.85;1.25;;;15.10;60.80;;;;;;5084367;28;20062;-43
2021/12/05 06:28:58;;;;;;;;;;;15.10;60.80;;;;;;5062769;28;20063;-43
2021/12/05 06:31:45;;;;;;;2.03;1.30;;;15.20;60.80;;;;;;5075916;28;33778;-41
2021/12/05 06:37:45;;;;;;;2.10;1.35;;;15.10;60.80;;;;;;5078028;28;20135;-44
2021/12/05 06:39:49;;;;;;;1.67;1.23;;;15.10;60.70;;;;;;5060992;28;20170;-40
2021/12/05 06:42:45;;;;;;;1.98;1.10;;;15.10;60.70;;;;;;5079812;28;20487;-40
2021/12/05 06:47:54;;;;;;;2.22;1.15;;;15.10;60.80;;;;;;5070065;28;20084;-41
2021/12/05 06:50:20;;;;;;;2.03;1.30;;;15.10;60.90;;;;;;5071935;28;20219;-42
2021/12/05 06:52:46;;;;;;;1.58;1.15;;;15.10;60.70;;;;;;5079297;28;20040;-39
2021/12/05 06:55:15;;;;;;;1.60;1.10;;;15.20;60.70;;;;;;5060024;28;20127;-43
2021/12/05 06:57:42;;;;;;;1.65;1.15;;;15.10;60.70;;;;;;5078589;28;20043;-44
2021/12/05 07:00:13;;;;;;;2.22;1.25;;;15.10;60.60;;;;;;5053109;28;31358;-43
2021/12/05 07:02:39;;;;;;;1.35;1.08;;;15.10;60.60;;;;;;5077725;28;20250;-44
2021/12/05 07:07:53;;;;;;;1.70;1.20;;;15.20;60.60;;;;;;5077502;28;20051;-44
2021/12/05 07:10:20;;;;;;;1.50;1.00;;;15.20;60.60;;;;;;5063138;28;20054;-44
2021/12/05 07:21:06;;;;;;;1.85;1.27;;;15.30;60.40;;;;;;5061683;28;23774;-42
2021/12/05 07:42:32;;;;;;;2.03;0.90;;;15.50;60.10;;;;;;5058178;28;25288;-43
2021/12/05 07:45:02;;;;;;;1.35;1.23;;;15.50;60.10;;;;;;5078305;28;20511;-45
2021/12/05 07:47:31;;;;;;;2.45;1.02;;;15.60;60.10;;;;;;5059998;28;24977;-44
2021/12/05 07:49:58;;;;;;;1.95;1.10;;;15.60;60.00;;;;;;5075011;28;20051;-42
2021/12/05 07:52:27;;;;;;;0.93;0.80;;;15.60;60.00;;;;;;5062348;28;20135;-45
2021/12/05 07:55:01;;;;;;;1.50;0.88;;;15.60;60.00;;;;;;5072857;28;38597;-42
2021/12/05 07:57:32;;;;;;;2.03;0.90;;;15.70;60.00;;;;;;5057910;28;20044;-45
2021/12/05 08:16:12;;;;;;;1.70;1.40;;;15.90;59.80;;;;;;5055194;28;20114;-44
2021/12/05 08:18:38;;;;;;;1.98;0.95;;;15.90;59.70;;;;;;5043584;28;20382;-44
2021/12/05 08:21:06;;;;;;;1.48;0.80;;;15.90;59.70;;;;;;5055499;28;20048;-42
2021/12/05 08:23:32;;;;;;;1.85;0.98;;;16.00;59.70;;;;;;5039392;28;36320;-45
2021/12/05 08:26:08;;;;;;;1.58;1.02;;;16.00;59.70;;;;;;5053844;28;20131;-45
2021/12/05 08:39:53;;;;;;;0.88;0.82;;;16.20;59.50;;;;;;5045291;28;20040;-44
2021/12/05 09:51:33;;;;;;;5.03;0.70;;;16.80;59.00;;;;;;5076987;28;20055;-43
2021/12/05 10:02:36;;;;;;;3.15;0.80;;;16.80;59.10;;;;;;5069464;28;34609;-36
2021/12/05 10:08:25;;;;;;;1.27;0.80;;;16.80;59.00;;;;;;5061324;28;20139;-45
2021/12/05 10:13:36;;;;;;;1.70;0.90;;;16.80;59.00;;;;;;5060492;28;20052;-42
2021/12/05 10:16:16;;;;;;;3.28;0.80;;;16.90;59.20;;;;;;5078923;28;33908;-46
2021/12/05 10:35:52;;;;;;;3.55;1.90;;;18.50;55.70;;;;;;5049171;28;20537;-60
2021/12/05 10:38:22;;;;;;;4.70;1.90;;;18.90;55.30;;;;;;5049223;28;20703;-58
2021/12/05 10:41:00;;;;;;;3.67;1.55;;;19.20;54.70;;;;;;5029363;28;20221;-57
2021/12/05 10:43:29;;;;;;;3.70;1.80;;;19.40;54.30;;;;;;5056522;28;20043;-59
2021/12/05 10:45:57;;;;;;;4.85;2.08;;;19.50;54.00;;;;;;5042224;28;20707;-57
2021/12/05 10:48:29;;;;;;;6.03;2.38;;;19.70;53.60;;;;;;5045786;28;20052;-59
2021/12/05 10:50:59;;;;;;;3.30;2.13;;;19.80;53.20;;;;;;5044300;28;20040;-60
2021/12/05 10:53:33;;;;;;;2.10;1.90;;;19.90;52.80;;;;;;5065588;28;20986;-58
2021/12/05 10:56:11;;;;;;;3.30;2.17;;;20.00;52.50;;;;;;5044764;28;20035;-59
2021/12/05 10:58:51;;;;;;;3.88;2.10;;;20.10;52.00;;;;;;5063648;28;20040;-59
2021/12/05 11:01:30;;;;;;;4.82;1.90;;;20.10;52.00;;;;;;5041881;28;20110;-59
2021/12/05 11:04:04;;;;;;;2.10;1.80;;;20.20;51.50;;;;;;5063748;28;20051;-58
2021/12/05 11:06:38;;;;;;;4.20;1.70;;;20.20;51.50;;;;;;5050224;28;20109;-59
2021/12/05 11:09:11;;;;;;;3.95;1.50;;;20.30;51.30;;;;;;5066755;28;20045;-58
2021/12/05 11:11:37;;;;;;;3.17;1.67;;;20.30;51.30;;;;;;5042580;28;20040;-59
2021/12/05 11:14:09;;;;;;;3.50;1.60;;;20.30;51.10;;;;;;5067844;28;20122;-59
2021/12/05 11:16:50;;;;;;;4.38;1.80;;;20.40;50.80;;;;;;5037674;28;20040;-59
2021/12/05 11:19:21;;;;;;;5.07;1.90;;;20.40;50.50;;;;;;5067097;28;20075;-57
2021/12/05 11:22:03;;;;;;;3.35;1.40;;;20.40;50.60;;;;;;5040992;28;20060;-58
2021/12/05 11:24:40;;;;;;;3.80;1.80;;;20.40;50.50;;;;;;5066046;28;20048;-58
2021/12/05 11:27:14;;;;;;;2.35;1.55;;;20.50;50.30;;;;;;5045284;28;20063;-58
2021/12/05 11:29:45;;;;;;;2.55;1.30;;;20.50;50.40;;;;;;5063729;28;20056;-59
2021/12/05 11:32:15;;;;;;;4.38;1.60;;;20.50;50.20;;;;;;5042297;28;20045;-59
2021/12/05 11:34:41;;;;;;;1.67;1.40;;;20.50;50.20;;;;;;5063035;28;20044;-59
2021/12/05 11:37:07;;;;;;;1.95;1.20;;;20.50;50.20;;;;;;5040854;28;20724;-59
2021/12/05 11:39:32;;;;;;;2.90;1.50;;;20.50;50.00;;;;;;5053312;28;20487;-57
2021/12/05 11:41:58;;;;;;;3.58;1.55;;;20.60;50.00;;;;;;5034783;28;20049;-59
2021/12/05 11:44:24;;;;;;;2.28;1.30;;;20.60;49.90;;;;;;5034167;28;20069;-58
2021/12/05 11:46:50;;;;;;;1.83;1.50;;;20.60;49.70;;;;;;5050335;28;20040;-59
2021/12/05 11:49:21;;;;;;;2.90;1.40;;;20.60;49.60;;;;;;5021307;28;20056;-59
2021/12/05 11:51:56;;;;;;;2.42;1.38;;;20.60;49.50;;;;;;5033640;28;20492;-58
2021/12/05 11:54:37;;;;;;;1.88;1.40;;;20.60;49.40;;;;;;5024958;28;20076;-58
2021/12/05 11:57:14;;;;;;;3.50;1.33;;;20.60;49.10;;;;;;5052600;28;20041;-59
2021/12/05 11:59:47;;;;;;;2.10;1.20;;;20.60;49.40;;;;;;5028092;28;20045;-57
2021/12/05 12:02:17;;;;;;;7.35;1.40;;;20.60;49.20;;;;;;5036911;28;20118;-59
2021/12/05 12:04:47;;;;;;;4.60;1.38;;;20.60;49.20;;;;;;5016042;28;20051;-59
2021/12/05 12:07:24;;;;;;;3.60;1.40;;;20.60;49.10;;;;;;4993130;28;20057;-59
2021/12/05 12:09:56;;;;;;;2.20;1.40;;;20.60;49.00;;;;;;5007063;28;20056;-59
2021/12/05 12:12:22;;;;;;;3.72;1.30;;;20.60;49.20;;;;;;5030071;28;20574;-58
2021/12/05 12:14:48;;;;;;;2.50;1.55;;;20.60;49.30;;;;;;5011013;28;20141;-58
2021/12/05 12:17:17;;;;;;;1.92;1.25;;;20.70;49.30;;;;;;5029709;28;20758;-58
2021/12/05 12:19:46;;;;;;;3.15;1.30;;;20.70;49.30;;;;;;5013325;28;20079;-58
2021/12/05 12:22:13;;;;;;;2.63;1.20;;;20.60;49.20;;;;;;5026406;28;20037;-57
2021/12/05 12:24:40;;;;;;;2.47;1.10;;;20.60;49.20;;;;;;5013680;28;20128;-59
2021/12/05 12:27:08;;;;;;;4.00;1.45;;;20.60;49.30;;;;;;5030131;28;20057;-58
2021/12/05 12:29:34;;;;;;;3.90;1.70;;;20.70;49.30;;;;;;5011043;28;20434;-58
2021/12/05 12:32:12;;;;;;;2.78;1.40;;;20.70;49.30;;;;;;5031517;28;20387;-60
2021/12/05 12:34:42;;;;;;;2.42;1.15;;;20.70;49.20;;;;;;5029116;28;20367;-56
2021/12/05 12:37:10;;;;;;;2.10;1.08;;;20.60;49.30;;;;;;5022815;28;20036;-59
2021/12/05 12:39:38;;;;;;;3.13;1.08;;;20.60;49.30;;;;;;5031381;28;20125;-58
2021/12/05 12:42:13;;;;;;;1.70;0.93;;;20.60;49.50;;;;;;4990937;28;20056;-59
2021/12/05 12:44:58;;;;;;;3.55;1.10;;;20.60;49.60;;;;;;5029608;28;20037;-58
2021/12/05 12:47:41;;;;;;;2.53;0.95;;;20.70;49.40;;;;;;4978102;28;20515;-59
2021/12/05 12:50:41;;;;;;;4.07;1.48;;;20.60;49.50;;;;;;5026505;28;20041;-58
2021/12/05 12:53:16;;;;;;;5.22;1.63;;;20.70;49.20;;;;;;4969041;28;20094;-58
2021/12/05 12:55:58;;;;;;;2.45;1.17;;;20.60;49.50;;;;;;5011940;28;20148;-57
2021/12/05 12:58:55;;;;;;;3.60;1.20;;;20.70;49.30;;;;;;5030113;28;20092;-58
2021/12/05 13:19:32;;;;;;;3.92;1.20;;;20.50;49.00;;;;;;4972255;28;20953;-59
2021/12/05 13:22:07;;;;;;;3.25;1.30;;;20.50;49.50;;;;;;4964052;28;20193;-58
2021/12/05 13:24:42;;;;;;;4.78;1.35;;;20.50;49.90;;;;;;4984097;28;20663;-59
2021/12/05 13:27:24;;;;;;;3.35;1.17;;;20.50;50.20;;;;;;4984070;28;20052;-58
2021/12/05 13:29:52;;;;;;;3.03;1.00;;;20.50;50.80;;;;;;4990335;28;20042;-58
2021/12/05 13:32:26;;;;;;;6.32;1.20;;;20.60;51.00;;;;;;4986438;28;20046;-58
2021/12/05 13:35:00;;;;;;;6.88;1.48;;;20.60;51.10;;;;;;4982245;28;20482;-58
2021/12/05 13:37:29;;;;;;;2.95;1.33;;;20.50;51.00;;;;;;4988885;28;20046;-59
2021/12/05 13:40:12;;;;;;;7.82;1.20;;;20.50;51.10;;;;;;4965148;28;20049;-58
2021/12/05 13:42:44;;;;;;;4.18;1.30;;;20.50;51.10;;;;;;4987585;28;20084;-59
2021/12/05 13:45:17;;;;;;;3.67;1.27;;;20.50;51.20;;;;;;4967219;28;20046;-59
2021/12/05 13:47:46;;;;;;;1.20;1.02;;;20.50;51.10;;;;;;4986721;28;20089;-59
2021/12/05 13:50:25;;;;;;;1.15;0.90;;;20.50;51.00;;;;;;4964034;28;20756;-59
2021/12/05 13:53:02;;;;;;;2.97;1.15;;;20.50;50.80;;;;;;4987499;28;20042;-58
2021/12/05 13:55:55;;;;;;;4.20;1.30;;;20.50;51.00;;;;;;4967547;28;20449;-58
2021/12/05 13:58:40;;;;;;;4.35;1.70;;;20.50;50.90;;;;;;4986291;28;20140;-58
2021/12/05 14:01:28;;;;;;;3.53;1.50;;;20.50;51.00;;;;;;4988547;28;20136;-58
2021/12/05 14:04:08;;;;;;;5.22;1.73;;;20.50;50.80;;;;;;4964537;28;20050;-57
2021/12/05 14:07:05;;;;;;;7.55;2.15;;;20.50;50.90;;;;;;4988855;28;20062;-59
2021/12/05 14:09:43;;;;;;;5.57;2.03;;;20.50;51.00;;;;;;4975339;28;20057;-59
2021/12/05 14:12:27;;;;;;;10.98;1.85;;;20.50;50.80;;;;;;4985182;28;20482;-59
2021/12/05 14:15:00;;;;;;;16.65;2.58;;;20.50;50.90;;;;;;4968693;28;20045;-59
2021/12/05 14:17:27;;;;;;;10.70;2.42;;;20.50;51.10;;;;;;4981920;28;20316;-58
2021/12/05 14:19:59;;;;;;;10.60;2.63;;;20.50;51.00;;;;;;4967421;28;22600;-58
2021/12/05 14:22:29;;;;;;;13.95;2.38;;;20.50;51.60;;;;;;4985501;28;20058;-59
2021/12/05 14:24:57;;;;;;;7.50;1.98;;;20.50;50.80;;;;;;4968311;28;20125;-58
2021/12/05 14:27:26;;;;;;;9.45;2.60;;;20.50;50.90;;;;;;4983781;28;20050;-59
2021/12/05 14:29:52;;;;;;;8.70;2.45;;;20.50;51.00;;;;;;4974148;28;20501;-58
2021/12/05 14:32:24;;;;;;;13.20;2.35;;;20.50;51.30;;;;;;4947011;28;20054;-58
2021/12/05 14:34:52;;;;;;;9.98;2.10;;;20.50;51.30;;;;;;4968790;28;20121;-59
2021/12/05 14:37:21;;;;;;;7.13;2.63;;;20.50;51.40;;;;;;4955360;28;20038;-59
2021/12/05 14:39:50;;;;;;;10.50;2.38;;;20.50;52.10;;;;;;4972370;28;20046;-59
2021/12/05 14:42:24;;;;;;;14.15;2.53;;;20.50;51.50;;;;;;4954505;28;20053;-59
2021/12/05 14:44:58;;;;;;;12.32;3.95;;;20.50;51.50;;;;;;4968830;28;20403;-60
2021/12/05 14:47:28;;;;;;;11.55;3.30;;;20.60;51.50;;;;;;4952492;28;20046;-59
2021/12/05 14:50:00;;;;;;;10.05;3.72;;;20.60;51.50;;;;;;4973565;28;20065;-58
2021/12/05 14:52:30;;;;;;;13.70;3.30;;;20.60;51.40;;;;;;4949941;28;20089;-59
2021/12/05 14:54:57;;;;;;;5.65;2.60;;;20.60;51.50;;;;;;4973063;28;20038;-57
2021/12/05 14:57:25;;;;;;;9.88;2.63;;;20.60;51.50;;;;;;4951885;28;20054;-58
2021/12/05 14:59:59;;;;;;;6.15;2.67;;;20.60;51.60;;;;;;4970533;28;20050;-58
2021/12/05 15:02:24;;;;;;;9.38;2.92;;;20.50;51.50;;;;;;4954532;28;20058;-58
2021/12/05 15:04:52;;;;;;;8.35;2.63;;;20.60;51.60;;;;;;4975513;28;20038;-60
2021/12/05 15:07:23;;;;;;;7.22;2.97;;;20.60;51.50;;;;;;4953390;28;20489;-60
2021/12/05 15:09:53;;;;;;;9.95;3.00;;;20.60;51.40;;;;;;4972020;28;20051;-59
2021/12/05 15:12:28;;;;;;;6.65;3.55;;;20.50;51.30;;;;;;4952660;28;20209;-60
2021/12/05 15:14:56;;;;;;;7.45;3.17;;;20.50;51.40;;;;;;4970327;28;20097;-62
2021/12/05 15:17:50;;;;;;;7.68;3.42;;;20.50;51.40;;;;;;4951465;28;20094;-59
2021/12/05 15:20:19;;;;;;;10.85;3.58;;;20.50;51.30;;;;;;4974979;28;20576;-61
2021/12/05 15:22:50;;;;;;;8.40;3.00;;;20.50;51.30;;;;;;4954280;28;20054;-59
2021/12/05 15:25:19;;;;;;;7.32;2.90;;;20.50;51.30;;;;;;4972868;28;20104;-60
2021/12/05 15:27:45;;;;;;;6.53;3.15;;;20.50;51.20;;;;;;4965449;28;20433;-58
2021/12/05 15:30:27;;;;;;;8.65;3.50;;;20.50;52.10;;;;;;4954386;28;20046;-59
2021/12/05 15:32:56;;;;;;;12.48;3.88;;;20.50;51.40;;;;;;4969621;28;20034;-59
2021/12/05 15:35:23;;;;;;;7.60;3.30;;;20.50;51.90;;;;;;4948839;28;20062;-60
2021/12/05 15:38:03;;;;;;;6.90;3.42;;;20.50;52.30;;;;;;4968454;28;20050;-61
2021/12/05 15:40:33;;;;;;;7.43;2.97;;;20.50;52.40;;;;;;4949321;28;20590;-61
2021/12/05 15:43:11;;;;;;;11.00;3.65;;;20.50;52.60;;;;;;4963605;28;20053;-60
2021/12/05 15:45:39;;;;;;;8.30;3.17;;;20.50;52.70;;;;;;4944719;28;20422;-59
2021/12/05 15:48:04;;;;;;;8.40;2.80;;;20.50;52.70;;;;;;4968808;28;20046;-60
2021/12/05 15:50:37;;;;;;;8.88;2.97;;;20.50;52.80;;;;;;4948461;28;20073;-60
2021/12/05 15:53:05;;;;;;;7.93;2.65;;;20.50;52.70;;;;;;4968317;28;20054;-59
2021/12/05 15:55:35;;;;;;;5.32;2.70;;;20.50;52.60;;;;;;4949781;28;20785;-59
2021/12/05 15:58:30;;;;;;;6.15;2.35;;;20.50;52.50;;;;;;4967269;28;20046;-58
2021/12/05 16:01:11;;;;;;;7.95;2.63;;;20.50;52.30;;;;;;4950053;28;20074;-61
2021/12/05 16:03:43;;;;;;;5.65;2.75;;;20.60;52.50;;;;;;4970266;28;20105;-59
2021/12/05 16:06:10;;;;;;;5.55;2.72;;;20.50;52.40;;;;;;4949508;28;20477;-58
2021/12/05 16:08:35;;;;;;;7.70;4.22;;;20.50;52.40;;;;;;4968825;28;20034;-60
2021/12/05 16:11:09;;;;;;;10.55;4.82;;;20.50;52.50;;;;;;4950225;28;20049;-60
2021/12/05 16:13:38;;;;;;;4.75;4.22;;;20.60;52.80;;;;;;4967938;28;20088;-61
2021/12/05 16:16:21;;;;;;;13.98;5.50;;;20.60;53.00;;;;;;4953740;28;20276;-61
2021/12/05 16:18:50;;;;;;;9.50;5.20;;;20.60;53.00;;;;;;4970105;28;20061;-60
2021/12/05 16:21:21;;;;;;;8.70;5.22;;;20.60;53.50;;;;;;4951685;28;20050;-64
2021/12/05 16:23:49;;;;;;;8.40;5.32;;;20.60;53.90;;;;;;4968497;28;20053;-59
2021/12/05 16:26:23;;;;;;;11.98;5.40;;;20.60;54.20;;;;;;4948977;28;20049;-60
2021/12/05 16:28:55;;;;;;;9.13;5.20;;;20.60;54.30;;;;;;4972226;28;20123;-60
2021/12/05 16:31:42;;;;;;;9.98;6.05;;;20.60;54.50;;;;;;4950209;28;20050;-61
2021/12/05 16:34:20;;;;;;;11.25;6.10;;;20.60;54.70;;;;;;4971677;28;20046;-60
2021/12/05 16:36:56;;;;;;;12.90;5.75;;;20.70;54.90;;;;;;4952003;28;20054;-60
2021/12/05 16:39:43;;;;;;;10.82;6.07;;;20.70;55.00;;;;;;4966647;28;20043;-60
2021/12/05 16:42:11;;;;;;;9.88;5.53;;;20.70;55.10;;;;;;4952169;28;20050;-60
2021/12/05 16:44:40;;;;;;;17.20;5.60;;;20.60;56.00;;;;;;4967341;28;20050;-60
2021/12/05 16:47:16;;;;;;;11.50;4.88;;;20.70;55.50;;;;;;4951030;28;20058;-61
2021/12/05 16:49:44;;;;;;;10.38;4.85;;;20.70;55.50;;;;;;4971978;28;20104;-61
2021/12/05 16:52:23;;;;;;;9.38;4.90;;;20.60;55.50;;;;;;4948231;28;20058;-60
2021/12/05 16:54:53;;;;;;;8.48;4.88;;;20.60;55.50;;;;;;4975480;28;20046;-59
2021/12/05 16:57:24;;;;;;;9.82;4.45;;;20.60;55.40;;;;;;4948696;28;20726;-61
2021/12/05 16:59:51;;;;;;;12.02;4.68;;;20.60;55.50;;;;;;4977380;28;20054;-62
2021/12/05 17:02:28;;;;;;;6.30;4.15;;;20.70;55.50;;;;;;4948641;28;20119;-59
2021/12/05 17:04:59;;;;;;;7.35;3.95;;;20.60;55.50;;;;;;4972330;28;20054;-57
2021/12/05 17:07:49;;;;;;;7.10;3.47;;;20.60;55.50;;;;;;4958654;28;20050;-58
2021/12/05 17:10:21;;;;;;;6.82;4.00;;;20.70;55.70;;;;;;4967163;28;20046;-60
2021/12/05 17:12:48;;;;;;;9.80;3.95;;;20.70;55.80;;;;;;4952628;28;20050;-60
2021/12/05 17:15:19;;;;;;;10.75;4.15;;;20.60;55.80;;;;;;4982217;28;20050;-60
2021/12/05 17:17:46;;;;;;;12.35;3.58;;;20.70;56.00;;;;;;4970399;28;20054;-60
2021/12/05 17:20:24;;;;;;;7.40;3.30;;;20.70;56.10;;;;;;4950680;28;20066;-60
2021/12/05 17:23:00;;;;;;;116.85;13.55;;;20.70;56.00;;;;;;4970118;28;20054;-61
2021/12/05 17:25:34;;;;;;;147.43;16.17;;;20.70;56.20;;;;;;4953881;28;20054;-61
2021/12/05 17:28:02;;;;;;;158.77;14.80;;;20.70;56.30;;;;;;4967634;28;20343;-60
2021/12/05 17:30:28;;;;;;;122.53;13.82;;;20.70;56.20;;;;;;4951390;28;20051;-59
2021/12/05 17:32:53;;;;;;;77.32;10.27;;;20.80;56.20;;;;;;4969123;28;20070;-60
2021/12/05 17:35:20;;;;;;;63.75;8.75;;;20.80;56.30;;;;;;4948708;28;20168;-60
2021/12/05 17:37:47;;;;;;;66.32;8.93;;;20.80;56.50;;;;;;4969371;28;20526;-60
2021/12/05 17:40:14;;;;;;;43.35;7.38;;;20.80;56.50;;;;;;4947544;28;20056;-59
2021/12/05 17:42:41;;;;;;;54.50;8.32;;;20.80;56.40;;;;;;4970921;28;20078;-60
2021/12/05 17:45:11;;;;;;;38.92;6.38;;;20.80;56.20;;;;;;4946226;28;20055;-58
2021/12/05 17:47:37;;;;;;;36.55;6.28;;;20.80;56.00;;;;;;4968389;28;20082;-61
2021/12/05 17:50:10;;;;;;;40.00;6.57;;;20.80;56.00;;;;;;4930104;28;20054;-61
2021/12/05 17:52:36;;;;;;;26.95;5.60;;;20.80;56.30;;;;;;4959106;28;20046;-60
2021/12/05 17:55:10;;;;;;;38.70;5.95;;;20.80;56.00;;;;;;4948524;28;21129;-61
2021/12/05 17:57:50;;;;;;;20.15;5.07;;;20.80;55.80;;;;;;4968845;28;20047;-59
2021/12/05 18:00:37;;;;;;;27.63;5.03;;;20.80;55.60;;;;;;4948568;28;20636;-60
2021/12/05 18:03:07;;;;;;;26.30;5.03;;;20.90;55.30;;;;;;4967725;28;20424;-60
2021/12/05 18:05:38;;;;;;;20.27;4.25;;;20.80;55.40;;;;;;4947204;28;20830;-58
2021/12/05 18:08:11;;;;;;;25.42;5.47;;;20.80;55.10;;;;;;4972023;28;20051;-60
2021/12/05 18:10:41;;;;;;;16.58;4.07;;;20.80;54.90;;;;;;4956126;28;20085;-57
2021/12/05 18:13:11;;;;;;;15.80;4.03;;;20.80;54.80;;;;;;4971707;28;20800;-60
2021/12/05 18:15:44;;;;;;;20.00;4.63;;;20.80;54.70;;;;;;4970285;28;20667;-60
2021/12/05 18:18:10;;;;;;;20.10;4.60;;;20.80;54.60;;;;;;4967889;28;20137;-59
2021/12/05 18:20:36;;;;;;;26.60;4.40;;;20.70;54.40;;;;;;4971574;28;20100;-59
2021/12/05 18:23:06;;;;;;;19.33;4.03;;;20.70;54.40;;;;;;4953082;28;20046;-60
2021/12/05 18:25:34;;;;;;;14.15;3.72;;;20.80;54.70;;;;;;4971799;28;20141;-60
2021/12/05 18:27:59;;;;;;;13.25;3.40;;;20.80;54.70;;;;;;4948728;28;20042;-61
2021/12/05 18:30:27;;;;;;;18.30;3.70;;;20.70;54.80;;;;;;4969815;28;20042;-60
2021/12/05 18:32:56;;;;;;;15.52;3.95;;;20.70;54.50;;;;;;4952297;28;20061;-60
2021/12/05 18:35:25;;;;;;;17.35;3.88;;;20.70;54.30;;;;;;4969391;28;21370;-60